sensor_id;sensor_type;location;lat;lon;timestamp;P1;durP1;ratioP1;P2;durP2;ratioP2
3465;SDS011;1747;48.884;9.160;2022-12-04T00:00:27;22.60;;;10.85;;
3465;SDS011;1747;48.884;9.160;2022-12-04T00:02:53;20.85;;;9.27;;
3465;SDS011;1747;48.884;9.160;2022-12-04T00:05:20;23.45;;;9.93;;
3465;SDS011;1747;48.884;9.160;2022-12-04T00:07:47;20.33;;;9.60;;
3465;SDS011;1747;48.884;9.160;2022-12-04T00:10:14;19.45;;;9.48;;
3465;SDS011;1747;48.884;9.160;2022-12-04T00:12:41;20.85;;;9.20;;
3465;SDS011;1747;48.884;9.160;2022-12-04T00:15:09;20.83;;;9.50;;
3465;SDS011;1747;48.884;9.160;2022-12-04T00:17:36;20.70;;;8.93;;
3465;SDS011;1747;48.884;9.160;2022-12-04T00:20:03;20.70;;;9.55;;
3465;SDS011;1747;48.884;9.160;2022-12-04T00:22:31;21.55;;;9.27;;
3465;SDS011;1747;48.884;9.160;2022-12-04T00:24:58;20.80;;;9.38;;
3465;SDS011;1747;48.884;9.160;2022-12-04T00:27:25;21.60;;;9.70;;
3465;SDS011;1747;48.884;9.160;2022-12-04T00:29:52;20.05;;;9.07;;
3465;SDS011;1747;48.884;9.160;2022-12-04T00:32:20;19.27;;;9.35;;
3465;SDS011;1747;48.884;9.160;2022-12-04T00:34:47;21.13;;;9.00;;
3465;SDS011;1747;48.884;9.160;2022-12-04T00:37:17;22.00;;;9.48;;
3465;SDS011;1747;48.884;9.160;2022-12-04T00:39:44;23.40;;;10.18;;
3465;SDS011;1747;48.884;9.160;2022-12-04T00:42:10;23.27;;;10.07;;
3465;SDS011;1747;48.884;9.160;2022-12-04T00:44:37;23.80;;;10.18;;
3465;SDS011;1747;48.884;9.160;2022-12-04T00:47:04;24.15;;;10.25;;
3465;SDS011;1747;48.884;9.160;2022-12-04T00:49:32;24.75;;;10.23;;
3465;SDS011;1747;48.884;9.160;2022-12-04T00:51:59;19.67;;;9.52;;
3465;SDS011;1747;48.884;9.160;2022-12-04T00:54:26;23.00;;;9.80;;
3465;SDS011;1747;48.884;9.160;2022-12-04T00:56:52;23.23;;;9.98;;
3465;SDS011;1747;48.884;9.160;2022-12-04T00:59:19;22.95;;;10.48;;
3465;SDS011;1747;48.884;9.160;2022-12-04T01:01:46;22.35;;;10.40;;
3465;SDS011;1747;48.884;9.160;2022-12-04T01:04:13;21.20;;;9.90;;
3465;SDS011;1747;48.884;9.160;2022-12-04T01:06:41;25.92;;;10.77;;
3465;SDS011;1747;48.884;9.160;2022-12-04T01:09:08;21.30;;;10.15;;
3465;SDS011;1747;48.884;9.160;2022-12-04T01:11:34;23.85;;;10.15;;
3465;SDS011;1747;48.884;9.160;2022-12-04T01:14:02;22.98;;;9.82;;
3465;SDS011;1747;48.884;9.160;2022-12-04T01:16:30;22.55;;;10.48;;
3465;SDS011;1747;48.884;9.160;2022-12-04T01:18:58;25.33;;;10.27;;
3465;SDS011;1747;48.884;9.160;2022-12-04T01:21:25;25.58;;;10.13;;
3465;SDS011;1747;48.884;9.160;2022-12-04T01:23:53;26.00;;;11.18;;
3465;SDS011;1747;48.884;9.160;2022-12-04T01:26:20;21.65;;;10.35;;
3465;SDS011;1747;48.884;9.160;2022-12-04T01:28:47;26.10;;;10.57;;
3465;SDS011;1747;48.884;9.160;2022-12-04T01:31:15;24.85;;;9.98;;
3465;SDS011;1747;48.884;9.160;2022-12-04T01:33:44;22.25;;;10.77;;
3465;SDS011;1747;48.884;9.160;2022-12-04T01:36:13;20.05;;;9.45;;
3465;SDS011;1747;48.884;9.160;2022-12-04T01:38:41;23.20;;;9.95;;
3465;SDS011;1747;48.884;9.160;2022-12-04T01:41:10;24.08;;;9.90;;
3465;SDS011;1747;48.884;9.160;2022-12-04T01:43:38;20.77;;;9.18;;
3465;SDS011;1747;48.884;9.160;2022-12-04T01:46:06;21.75;;;9.90;;
3465;SDS011;1747;48.884;9.160;2022-12-04T01:48:34;20.88;;;9.68;;
3465;SDS011;1747;48.884;9.160;2022-12-04T01:51:05;21.98;;;9.55;;
3465;SDS011;1747;48.884;9.160;2022-12-04T01:53:36;19.40;;;8.80;;
3465;SDS011;1747;48.884;9.160;2022-12-04T01:56:05;22.35;;;9.30;;
3465;SDS011;1747;48.884;9.160;2022-12-04T01:58:34;23.27;;;10.38;;
3465;SDS011;1747;48.884;9.160;2022-12-04T02:01:05;20.27;;;9.05;;
3465;SDS011;1747;48.884;9.160;2022-12-04T02:03:32;25.13;;;10.13;;
3465;SDS011;1747;48.884;9.160;2022-12-04T02:06:00;18.50;;;9.02;;
3465;SDS011;1747;48.884;9.160;2022-12-04T02:08:27;21.02;;;8.48;;
3465;SDS011;1747;48.884;9.160;2022-12-04T02:10:57;21.90;;;9.30;;
3465;SDS011;1747;48.884;9.160;2022-12-04T02:13:35;17.55;;;9.00;;
3465;SDS011;1747;48.884;9.160;2022-12-04T02:16:12;21.52;;;8.70;;
3465;SDS011;1747;48.884;9.160;2022-12-04T02:18:45;18.60;;;8.27;;
3465;SDS011;1747;48.884;9.160;2022-12-04T02:21:23;20.48;;;8.85;;
3465;SDS011;1747;48.884;9.160;2022-12-04T02:23:58;22.60;;;8.98;;
3465;SDS011;1747;48.884;9.160;2022-12-04T02:26:45;21.10;;;8.82;;
3465;SDS011;1747;48.884;9.160;2022-12-04T02:29:19;19.77;;;8.73;;
3465;SDS011;1747;48.884;9.160;2022-12-04T02:31:54;19.92;;;8.93;;
3465;SDS011;1747;48.884;9.160;2022-12-04T02:34:25;21.45;;;9.60;;
3465;SDS011;1747;48.884;9.160;2022-12-04T02:36:54;19.38;;;9.38;;
3465;SDS011;1747;48.884;9.160;2022-12-04T02:39:27;22.08;;;9.15;;
3465;SDS011;1747;48.884;9.160;2022-12-04T02:42:00;19.77;;;8.55;;
3465;SDS011;1747;48.884;9.160;2022-12-04T02:44:33;22.77;;;10.18;;
3465;SDS011;1747;48.884;9.160;2022-12-04T02:47:06;22.88;;;9.23;;
3465;SDS011;1747;48.884;9.160;2022-12-04T02:49:37;22.55;;;9.48;;
3465;SDS011;1747;48.884;9.160;2022-12-04T02:52:08;21.20;;;9.70;;
3465;SDS011;1747;48.884;9.160;2022-12-04T02:54:38;22.10;;;10.10;;
3465;SDS011;1747;48.884;9.160;2022-12-04T02:57:10;20.00;;;10.05;;
3465;SDS011;1747;48.884;9.160;2022-12-04T02:59:41;24.10;;;9.82;;
3465;SDS011;1747;48.884;9.160;2022-12-04T03:02:11;23.27;;;10.00;;
3465;SDS011;1747;48.884;9.160;2022-12-04T03:04:42;21.80;;;9.52;;
3465;SDS011;1747;48.884;9.160;2022-12-04T03:07:15;22.67;;;9.93;;
3465;SDS011;1747;48.884;9.160;2022-12-04T03:09:45;20.65;;;9.98;;
3465;SDS011;1747;48.884;9.160;2022-12-04T03:14:51;21.98;;;9.25;;
3465;SDS011;1747;48.884;9.160;2022-12-04T03:17:27;21.98;;;10.15;;
3465;SDS011;1747;48.884;9.160;2022-12-04T03:19:57;22.75;;;9.80;;
3465;SDS011;1747;48.884;9.160;2022-12-04T03:22:28;23.90;;;9.65;;
3465;SDS011;1747;48.884;9.160;2022-12-04T03:24:56;22.92;;;9.93;;
3465;SDS011;1747;48.884;9.160;2022-12-04T03:27:25;21.50;;;8.43;;
3465;SDS011;1747;48.884;9.160;2022-12-04T03:29:59;19.50;;;9.88;;
3465;SDS011;1747;48.884;9.160;2022-12-04T03:32:30;21.00;;;9.27;;
3465;SDS011;1747;48.884;9.160;2022-12-04T03:35:02;20.63;;;9.30;;
3465;SDS011;1747;48.884;9.160;2022-12-04T03:37:35;23.30;;;10.43;;
3465;SDS011;1747;48.884;9.160;2022-12-04T03:40:07;22.30;;;10.52;;
3465;SDS011;1747;48.884;9.160;2022-12-04T03:42:41;18.52;;;8.77;;
3465;SDS011;1747;48.884;9.160;2022-12-04T03:45:16;22.48;;;10.32;;
3465;SDS011;1747;48.884;9.160;2022-12-04T03:47:48;24.42;;;11.20;;
3465;SDS011;1747;48.884;9.160;2022-12-04T03:50:21;22.17;;;10.38;;
3465;SDS011;1747;48.884;9.160;2022-12-04T03:52:57;22.60;;;9.48;;
3465;SDS011;1747;48.884;9.160;2022-12-04T03:55:28;21.48;;;9.88;;
3465;SDS011;1747;48.884;9.160;2022-12-04T03:58:02;21.92;;;10.18;;
3465;SDS011;1747;48.884;9.160;2022-12-04T04:00:35;22.70;;;10.18;;
3465;SDS011;1747;48.884;9.160;2022-12-04T04:03:05;22.40;;;10.43;;
3465;SDS011;1747;48.884;9.160;2022-12-04T04:05:36;24.35;;;9.77;;
3465;SDS011;1747;48.884;9.160;2022-12-04T04:08:06;25.23;;;10.32;;
3465;SDS011;1747;48.884;9.160;2022-12-04T04:10:52;22.08;;;9.77;;
3465;SDS011;1747;48.884;9.160;2022-12-04T04:13:24;28.15;;;11.10;;
3465;SDS011;1747;48.884;9.160;2022-12-04T04:16:16;19.55;;;9.85;;
3465;SDS011;1747;48.884;9.160;2022-12-04T04:19:04;26.17;;;10.98;;
3465;SDS011;1747;48.884;9.160;2022-12-04T04:21:50;22.92;;;10.68;;
3465;SDS011;1747;48.884;9.160;2022-12-04T04:24:38;20.85;;;10.52;;
3465;SDS011;1747;48.884;9.160;2022-12-04T04:27:08;25.42;;;10.88;;
3465;SDS011;1747;48.884;9.160;2022-12-04T04:29:35;22.40;;;10.40;;
3465;SDS011;1747;48.884;9.160;2022-12-04T04:32:05;27.05;;;11.43;;
3465;SDS011;1747;48.884;9.160;2022-12-04T04:34:38;22.50;;;11.00;;
3465;SDS011;1747;48.884;9.160;2022-12-04T04:37:15;27.15;;;11.75;;
3465;SDS011;1747;48.884;9.160;2022-12-04T04:39:51;28.05;;;12.57;;
3465;SDS011;1747;48.884;9.160;2022-12-04T04:42:25;22.15;;;10.90;;
3465;SDS011;1747;48.884;9.160;2022-12-04T04:44:56;25.70;;;12.13;;
3465;SDS011;1747;48.884;9.160;2022-12-04T04:47:31;29.83;;;12.90;;
3465;SDS011;1747;48.884;9.160;2022-12-04T04:50:03;26.73;;;10.77;;
3465;SDS011;1747;48.884;9.160;2022-12-04T04:52:33;25.63;;;10.68;;
3465;SDS011;1747;48.884;9.160;2022-12-04T04:55:02;23.55;;;11.10;;
3465;SDS011;1747;48.884;9.160;2022-12-04T04:57:31;26.88;;;11.50;;
3465;SDS011;1747;48.884;9.160;2022-12-04T05:00:00;23.02;;;11.45;;
3465;SDS011;1747;48.884;9.160;2022-12-04T05:02:30;26.38;;;11.98;;
3465;SDS011;1747;48.884;9.160;2022-12-04T05:04:58;25.75;;;11.73;;
3465;SDS011;1747;48.884;9.160;2022-12-04T05:07:25;24.13;;;12.32;;
3465;SDS011;1747;48.884;9.160;2022-12-04T05:09:51;23.10;;;11.38;;
3465;SDS011;1747;48.884;9.160;2022-12-04T05:12:18;23.92;;;11.23;;
3465;SDS011;1747;48.884;9.160;2022-12-04T05:14:46;27.70;;;12.15;;
3465;SDS011;1747;48.884;9.160;2022-12-04T05:17:13;27.80;;;11.93;;
3465;SDS011;1747;48.884;9.160;2022-12-04T05:19:41;24.70;;;12.20;;
3465;SDS011;1747;48.884;9.160;2022-12-04T05:22:21;24.42;;;11.63;;
3465;SDS011;1747;48.884;9.160;2022-12-04T05:24:49;22.23;;;11.20;;
3465;SDS011;1747;48.884;9.160;2022-12-04T05:27:16;23.83;;;11.57;;
3465;SDS011;1747;48.884;9.160;2022-12-04T05:29:44;25.63;;;12.35;;
3465;SDS011;1747;48.884;9.160;2022-12-04T05:32:12;24.77;;;12.85;;
3465;SDS011;1747;48.884;9.160;2022-12-04T05:34:41;24.13;;;11.52;;
3465;SDS011;1747;48.884;9.160;2022-12-04T05:37:08;24.15;;;11.65;;
3465;SDS011;1747;48.884;9.160;2022-12-04T05:39:35;22.17;;;11.57;;
3465;SDS011;1747;48.884;9.160;2022-12-04T05:42:01;25.73;;;12.43;;
3465;SDS011;1747;48.884;9.160;2022-12-04T05:44:28;24.67;;;11.27;;
3465;SDS011;1747;48.884;9.160;2022-12-04T05:46:55;26.27;;;12.07;;
3465;SDS011;1747;48.884;9.160;2022-12-04T05:49:22;24.27;;;12.27;;
3465;SDS011;1747;48.884;9.160;2022-12-04T05:51:50;24.30;;;11.05;;
3465;SDS011;1747;48.884;9.160;2022-12-04T05:54:17;22.45;;;10.68;;
3465;SDS011;1747;48.884;9.160;2022-12-04T05:56:44;24.58;;;11.65;;
3465;SDS011;1747;48.884;9.160;2022-12-04T05:59:11;22.88;;;11.45;;
3465;SDS011;1747;48.884;9.160;2022-12-04T06:01:38;22.17;;;11.18;;
3465;SDS011;1747;48.884;9.160;2022-12-04T06:04:06;23.17;;;10.93;;
3465;SDS011;1747;48.884;9.160;2022-12-04T06:06:33;24.33;;;11.85;;
3465;SDS011;1747;48.884;9.160;2022-12-04T06:09:01;25.52;;;11.93;;
3465;SDS011;1747;48.884;9.160;2022-12-04T06:11:29;23.15;;;11.40;;
3465;SDS011;1747;48.884;9.160;2022-12-04T06:13:57;26.25;;;11.80;;
3465;SDS011;1747;48.884;9.160;2022-12-04T06:16:26;24.73;;;11.57;;
3465;SDS011;1747;48.884;9.160;2022-12-04T06:18:55;22.83;;;11.82;;
3465;SDS011;1747;48.884;9.160;2022-12-04T06:21:23;21.95;;;11.07;;
3465;SDS011;1747;48.884;9.160;2022-12-04T06:23:52;23.73;;;11.23;;
3465;SDS011;1747;48.884;9.160;2022-12-04T06:26:21;20.83;;;10.90;;
3465;SDS011;1747;48.884;9.160;2022-12-04T06:28:48;22.70;;;11.27;;
3465;SDS011;1747;48.884;9.160;2022-12-04T06:31:17;26.30;;;12.27;;
3465;SDS011;1747;48.884;9.160;2022-12-04T06:33:44;25.40;;;11.35;;
3465;SDS011;1747;48.884;9.160;2022-12-04T06:36:12;23.33;;;11.40;;
3465;SDS011;1747;48.884;9.160;2022-12-04T06:38:41;25.35;;;11.80;;
3465;SDS011;1747;48.884;9.160;2022-12-04T06:41:09;23.02;;;11.65;;
3465;SDS011;1747;48.884;9.160;2022-12-04T06:43:38;25.67;;;11.63;;
3465;SDS011;1747;48.884;9.160;2022-12-04T06:46:07;20.77;;;10.80;;
3465;SDS011;1747;48.884;9.160;2022-12-04T06:48:35;23.30;;;11.50;;
3465;SDS011;1747;48.884;9.160;2022-12-04T06:51:03;22.55;;;11.63;;
3465;SDS011;1747;48.884;9.160;2022-12-04T06:53:31;23.10;;;11.63;;
3465;SDS011;1747;48.884;9.160;2022-12-04T06:55:59;25.42;;;11.90;;
3465;SDS011;1747;48.884;9.160;2022-12-04T06:58:28;22.45;;;11.23;;
3465;SDS011;1747;48.884;9.160;2022-12-04T07:00:57;20.90;;;10.32;;
3465;SDS011;1747;48.884;9.160;2022-12-04T07:03:24;22.63;;;10.85;;
3465;SDS011;1747;48.884;9.160;2022-12-04T07:05:51;19.98;;;10.07;;
3465;SDS011;1747;48.884;9.160;2022-12-04T07:08:18;23.33;;;10.98;;
3465;SDS011;1747;48.884;9.160;2022-12-04T07:10:45;23.27;;;11.32;;
3465;SDS011;1747;48.884;9.160;2022-12-04T07:13:12;21.17;;;9.98;;
3465;SDS011;1747;48.884;9.160;2022-12-04T07:15:39;19.13;;;10.15;;
3465;SDS011;1747;48.884;9.160;2022-12-04T07:18:08;20.45;;;10.48;;
3465;SDS011;1747;48.884;9.160;2022-12-04T07:20:34;24.40;;;11.20;;
3465;SDS011;1747;48.884;9.160;2022-12-04T07:23:05;23.13;;;10.95;;
3465;SDS011;1747;48.884;9.160;2022-12-04T07:25:37;23.10;;;10.40;;
3465;SDS011;1747;48.884;9.160;2022-12-04T07:28:05;23.60;;;11.05;;
3465;SDS011;1747;48.884;9.160;2022-12-04T07:30:32;20.95;;;9.98;;
3465;SDS011;1747;48.884;9.160;2022-12-04T07:33:00;21.15;;;10.15;;
3465;SDS011;1747;48.884;9.160;2022-12-04T07:35:31;23.55;;;11.05;;
3465;SDS011;1747;48.884;9.160;2022-12-04T07:37:58;21.25;;;10.63;;
3465;SDS011;1747;48.884;9.160;2022-12-04T07:40:27;20.70;;;9.35;;
3465;SDS011;1747;48.884;9.160;2022-12-04T07:42:54;18.90;;;9.15;;
3465;SDS011;1747;48.884;9.160;2022-12-04T07:45:21;20.85;;;10.43;;
3465;SDS011;1747;48.884;9.160;2022-12-04T07:47:48;21.05;;;9.75;;
3465;SDS011;1747;48.884;9.160;2022-12-04T07:50:15;20.52;;;9.98;;
3465;SDS011;1747;48.884;9.160;2022-12-04T07:52:43;20.73;;;9.98;;
3465;SDS011;1747;48.884;9.160;2022-12-04T07:55:10;19.80;;;10.05;;
3465;SDS011;1747;48.884;9.160;2022-12-04T07:57:37;20.00;;;10.05;;
3465;SDS011;1747;48.884;9.160;2022-12-04T08:00:05;19.67;;;8.68;;
3465;SDS011;1747;48.884;9.160;2022-12-04T08:02:33;19.98;;;9.40;;
3465;SDS011;1747;48.884;9.160;2022-12-04T08:04:59;19.88;;;9.88;;
3465;SDS011;1747;48.884;9.160;2022-12-04T08:07:26;18.50;;;9.05;;
3465;SDS011;1747;48.884;9.160;2022-12-04T08:09:54;21.08;;;9.90;;
3465;SDS011;1747;48.884;9.160;2022-12-04T08:12:21;21.60;;;9.65;;
3465;SDS011;1747;48.884;9.160;2022-12-04T08:14:48;21.58;;;9.45;;
3465;SDS011;1747;48.884;9.160;2022-12-04T08:17:15;24.42;;;10.30;;
3465;SDS011;1747;48.884;9.160;2022-12-04T08:19:41;21.63;;;10.15;;
3465;SDS011;1747;48.884;9.160;2022-12-04T08:22:08;22.42;;;10.02;;
3465;SDS011;1747;48.884;9.160;2022-12-04T08:24:35;15.63;;;8.75;;
3465;SDS011;1747;48.884;9.160;2022-12-04T08:27:03;19.85;;;9.77;;
3465;SDS011;1747;48.884;9.160;2022-12-04T08:29:30;18.30;;;8.45;;
3465;SDS011;1747;48.884;9.160;2022-12-04T08:31:57;20.10;;;9.15;;
3465;SDS011;1747;48.884;9.160;2022-12-04T08:34:24;17.02;;;9.05;;
3465;SDS011;1747;48.884;9.160;2022-12-04T08:36:50;20.83;;;9.75;;
3465;SDS011;1747;48.884;9.160;2022-12-04T08:39:17;19.35;;;9.43;;
3465;SDS011;1747;48.884;9.160;2022-12-04T08:41:44;23.33;;;9.88;;
3465;SDS011;1747;48.884;9.160;2022-12-04T08:44:12;19.08;;;9.45;;
3465;SDS011;1747;48.884;9.160;2022-12-04T08:46:39;20.17;;;10.10;;
3465;SDS011;1747;48.884;9.160;2022-12-04T08:49:06;20.42;;;9.70;;
3465;SDS011;1747;48.884;9.160;2022-12-04T08:51:33;19.23;;;9.75;;
3465;SDS011;1747;48.884;9.160;2022-12-04T08:54:00;21.85;;;9.88;;
3465;SDS011;1747;48.884;9.160;2022-12-04T08:56:29;20.40;;;9.20;;
3465;SDS011;1747;48.884;9.160;2022-12-04T08:58:57;19.20;;;8.98;;
3465;SDS011;1747;48.884;9.160;2022-12-04T09:01:26;19.92;;;8.63;;
3465;SDS011;1747;48.884;9.160;2022-12-04T09:03:54;23.17;;;10.00;;
3465;SDS011;1747;48.884;9.160;2022-12-04T09:06:21;20.58;;;9.73;;
3465;SDS011;1747;48.884;9.160;2022-12-04T09:08:50;16.85;;;8.85;;
3465;SDS011;1747;48.884;9.160;2022-12-04T09:11:19;19.25;;;9.35;;
3465;SDS011;1747;48.884;9.160;2022-12-04T09:13:47;20.75;;;9.50;;
3465;SDS011;1747;48.884;9.160;2022-12-04T09:16:14;17.73;;;8.75;;
3465;SDS011;1747;48.884;9.160;2022-12-04T09:18:44;18.23;;;8.70;;
3465;SDS011;1747;48.884;9.160;2022-12-04T09:21:12;18.05;;;8.82;;
3465;SDS011;1747;48.884;9.160;2022-12-04T09:23:39;18.85;;;8.90;;
3465;SDS011;1747;48.884;9.160;2022-12-04T09:29:04;17.88;;;8.57;;
3465;SDS011;1747;48.884;9.160;2022-12-04T09:31:31;19.23;;;9.48;;
3465;SDS011;1747;48.884;9.160;2022-12-04T09:34:00;18.20;;;8.85;;
3465;SDS011;1747;48.884;9.160;2022-12-04T09:36:29;20.25;;;8.07;;
3465;SDS011;1747;48.884;9.160;2022-12-04T09:38:57;17.08;;;8.60;;
3465;SDS011;1747;48.884;9.160;2022-12-04T09:41:27;20.45;;;8.40;;
3465;SDS011;1747;48.884;9.160;2022-12-04T09:44:07;19.15;;;9.45;;
3465;SDS011;1747;48.884;9.160;2022-12-04T09:46:46;20.27;;;9.55;;
3465;SDS011;1747;48.884;9.160;2022-12-04T09:49:18;17.27;;;8.20;;
3465;SDS011;1747;48.884;9.160;2022-12-04T09:51:49;19.30;;;9.05;;
3465;SDS011;1747;48.884;9.160;2022-12-04T09:54:18;18.08;;;8.27;;
3465;SDS011;1747;48.884;9.160;2022-12-04T09:56:54;18.58;;;8.32;;
3465;SDS011;1747;48.884;9.160;2022-12-04T09:59:31;17.17;;;8.95;;
3465;SDS011;1747;48.884;9.160;2022-12-04T10:02:01;23.30;;;10.13;;
3465;SDS011;1747;48.884;9.160;2022-12-04T10:04:38;18.25;;;8.68;;
3465;SDS011;1747;48.884;9.160;2022-12-04T10:07:07;19.60;;;9.13;;
3465;SDS011;1747;48.884;9.160;2022-12-04T10:09:41;18.52;;;8.80;;
3465;SDS011;1747;48.884;9.160;2022-12-04T10:12:17;23.33;;;9.45;;
3465;SDS011;1747;48.884;9.160;2022-12-04T10:15:03;19.13;;;8.32;;
3465;SDS011;1747;48.884;9.160;2022-12-04T10:17:40;19.30;;;8.07;;
3465;SDS011;1747;48.884;9.160;2022-12-04T10:20:27;18.13;;;8.70;;
3465;SDS011;1747;48.884;9.160;2022-12-04T10:23:16;17.77;;;8.70;;
3465;SDS011;1747;48.884;9.160;2022-12-04T10:25:52;20.13;;;8.82;;
3465;SDS011;1747;48.884;9.160;2022-12-04T10:28:23;20.10;;;9.52;;
3465;SDS011;1747;48.884;9.160;2022-12-04T10:30:57;17.08;;;8.38;;
3465;SDS011;1747;48.884;9.160;2022-12-04T10:33:29;19.52;;;8.93;;
3465;SDS011;1747;48.884;9.160;2022-12-04T10:36:02;17.38;;;8.75;;
3465;SDS011;1747;48.884;9.160;2022-12-04T10:38:33;19.90;;;9.27;;
3465;SDS011;1747;48.884;9.160;2022-12-04T10:41:05;20.00;;;9.07;;
3465;SDS011;1747;48.884;9.160;2022-12-04T10:43:42;20.50;;;9.77;;
3465;SDS011;1747;48.884;9.160;2022-12-04T10:46:15;17.13;;;8.43;;
3465;SDS011;1747;48.884;9.160;2022-12-04T10:48:50;16.38;;;8.35;;
3465;SDS011;1747;48.884;9.160;2022-12-04T10:51:21;17.58;;;8.65;;
3465;SDS011;1747;48.884;9.160;2022-12-04T10:53:49;16.95;;;7.75;;
3465;SDS011;1747;48.884;9.160;2022-12-04T10:56:18;20.83;;;8.65;;
3465;SDS011;1747;48.884;9.160;2022-12-04T10:58:56;16.70;;;8.60;;
3465;SDS011;1747;48.884;9.160;2022-12-04T11:01:29;16.55;;;7.78;;
3465;SDS011;1747;48.884;9.160;2022-12-04T11:04:02;17.65;;;8.35;;
3465;SDS011;1747;48.884;9.160;2022-12-04T11:06:34;15.30;;;7.38;;
3465;SDS011;1747;48.884;9.160;2022-12-04T11:09:02;18.75;;;8.48;;
3465;SDS011;1747;48.884;9.160;2022-12-04T11:11:30;16.20;;;8.57;;
3465;SDS011;1747;48.884;9.160;2022-12-04T11:14:04;17.80;;;8.63;;
3465;SDS011;1747;48.884;9.160;2022-12-04T11:16:37;18.05;;;8.45;;
3465;SDS011;1747;48.884;9.160;2022-12-04T11:19:18;18.75;;;9.35;;
3465;SDS011;1747;48.884;9.160;2022-12-04T11:21:49;20.55;;;9.27;;
3465;SDS011;1747;48.884;9.160;2022-12-04T11:24:18;18.73;;;8.82;;
3465;SDS011;1747;48.884;9.160;2022-12-04T11:26:57;19.67;;;8.70;;
3465;SDS011;1747;48.884;9.160;2022-12-04T11:29:25;15.35;;;8.15;;
3465;SDS011;1747;48.884;9.160;2022-12-04T11:31:57;15.32;;;7.10;;
3465;SDS011;1747;48.884;9.160;2022-12-04T11:34:30;17.98;;;7.90;;
3465;SDS011;1747;48.884;9.160;2022-12-04T11:37:02;16.08;;;8.10;;
3465;SDS011;1747;48.884;9.160;2022-12-04T11:39:33;17.25;;;8.43;;
3465;SDS011;1747;48.884;9.160;2022-12-04T11:42:03;17.20;;;9.05;;
3465;SDS011;1747;48.884;9.160;2022-12-04T11:44:34;15.85;;;8.20;;
3465;SDS011;1747;48.884;9.160;2022-12-04T11:47:04;15.95;;;7.88;;
3465;SDS011;1747;48.884;9.160;2022-12-04T11:49:42;17.35;;;8.05;;
3465;SDS011;1747;48.884;9.160;2022-12-04T11:52:20;17.80;;;8.60;;
3465;SDS011;1747;48.884;9.160;2022-12-04T11:54:59;20.02;;;8.52;;
3465;SDS011;1747;48.884;9.160;2022-12-04T11:57:29;18.55;;;8.25;;
3465;SDS011;1747;48.884;9.160;2022-12-04T12:00:08;15.93;;;8.23;;
3465;SDS011;1747;48.884;9.160;2022-12-04T12:02:43;18.80;;;8.52;;
3465;SDS011;1747;48.884;9.160;2022-12-04T12:05:21;17.70;;;8.20;;
3465;SDS011;1747;48.884;9.160;2022-12-04T12:08:08;19.05;;;8.23;;
3465;SDS011;1747;48.884;9.160;2022-12-04T12:10:42;18.95;;;10.80;;
3465;SDS011;1747;48.884;9.160;2022-12-04T12:13:19;20.35;;;10.00;;
3465;SDS011;1747;48.884;9.160;2022-12-04T12:15:58;17.65;;;9.05;;
3465;SDS011;1747;48.884;9.160;2022-12-04T12:18:38;20.70;;;10.68;;
3465;SDS011;1747;48.884;9.160;2022-12-04T12:21:18;20.13;;;10.52;;
3465;SDS011;1747;48.884;9.160;2022-12-04T12:24:00;14.73;;;8.35;;
3465;SDS011;1747;48.884;9.160;2022-12-04T12:26:44;15.50;;;7.70;;
3465;SDS011;1747;48.884;9.160;2022-12-04T12:29:28;18.92;;;9.23;;
3465;SDS011;1747;48.884;9.160;2022-12-04T12:32:09;15.18;;;8.32;;
3465;SDS011;1747;48.884;9.160;2022-12-04T12:34:46;17.70;;;8.85;;
3465;SDS011;1747;48.884;9.160;2022-12-04T12:37:19;18.20;;;9.23;;
3465;SDS011;1747;48.884;9.160;2022-12-04T12:39:57;16.42;;;8.05;;
3465;SDS011;1747;48.884;9.160;2022-12-04T12:42:30;18.00;;;8.70;;
3465;SDS011;1747;48.884;9.160;2022-12-04T12:45:01;18.98;;;9.32;;
3465;SDS011;1747;48.884;9.160;2022-12-04T12:47:35;20.20;;;10.98;;
3465;SDS011;1747;48.884;9.160;2022-12-04T12:50:09;19.73;;;8.48;;
3465;SDS011;1747;48.884;9.160;2022-12-04T12:52:42;16.38;;;8.75;;
3465;SDS011;1747;48.884;9.160;2022-12-04T12:55:15;19.83;;;10.07;;
3465;SDS011;1747;48.884;9.160;2022-12-04T12:57:45;18.48;;;9.52;;
3465;SDS011;1747;48.884;9.160;2022-12-04T13:00:18;20.00;;;9.52;;
3465;SDS011;1747;48.884;9.160;2022-12-04T13:02:48;19.45;;;8.27;;
3465;SDS011;1747;48.884;9.160;2022-12-04T13:05:22;19.17;;;9.50;;
3465;SDS011;1747;48.884;9.160;2022-12-04T13:07:55;16.55;;;8.02;;
3465;SDS011;1747;48.884;9.160;2022-12-04T13:10:27;18.88;;;8.45;;
3465;SDS011;1747;48.884;9.160;2022-12-04T13:12:59;15.38;;;8.18;;
3465;SDS011;1747;48.884;9.160;2022-12-04T13:15:32;22.70;;;10.32;;
3465;SDS011;1747;48.884;9.160;2022-12-04T13:18:04;17.77;;;8.63;;
3465;SDS011;1747;48.884;9.160;2022-12-04T13:20:35;18.48;;;9.38;;
3465;SDS011;1747;48.884;9.160;2022-12-04T13:23:23;21.38;;;10.25;;
3465;SDS011;1747;48.884;9.160;2022-12-04T13:26:13;16.75;;;9.10;;
3465;SDS011;1747;48.884;9.160;2022-12-04T13:28:50;22.90;;;9.13;;
3465;SDS011;1747;48.884;9.160;2022-12-04T13:31:24;19.60;;;8.32;;
3465;SDS011;1747;48.884;9.160;2022-12-04T13:34:02;18.77;;;9.38;;
3465;SDS011;1747;48.884;9.160;2022-12-04T13:36:54;18.38;;;8.88;;
3465;SDS011;1747;48.884;9.160;2022-12-04T13:39:38;19.98;;;9.23;;
3465;SDS011;1747;48.884;9.160;2022-12-04T13:42:34;19.67;;;8.77;;
3465;SDS011;1747;48.884;9.160;2022-12-04T13:45:02;20.02;;;8.80;;
3465;SDS011;1747;48.884;9.160;2022-12-04T13:47:35;20.88;;;8.32;;
3465;SDS011;1747;48.884;9.160;2022-12-04T13:52:52;21.02;;;9.48;;
3465;SDS011;1747;48.884;9.160;2022-12-04T13:55:21;21.75;;;10.10;;
3465;SDS011;1747;48.884;9.160;2022-12-04T13:57:55;21.23;;;9.57;;
3465;SDS011;1747;48.884;9.160;2022-12-04T14:00:28;21.30;;;9.80;;
3465;SDS011;1747;48.884;9.160;2022-12-04T14:02:59;20.20;;;9.35;;
3465;SDS011;1747;48.884;9.160;2022-12-04T14:05:33;20.60;;;8.93;;
3465;SDS011;1747;48.884;9.160;2022-12-04T14:08:07;18.05;;;8.57;;
3465;SDS011;1747;48.884;9.160;2022-12-04T14:10:55;21.30;;;9.32;;
3465;SDS011;1747;48.884;9.160;2022-12-04T14:13:28;22.40;;;9.27;;
3465;SDS011;1747;48.884;9.160;2022-12-04T14:16:14;21.95;;;8.85;;
3465;SDS011;1747;48.884;9.160;2022-12-04T14:18:45;21.50;;;9.25;;
3465;SDS011;1747;48.884;9.160;2022-12-04T14:21:14;21.02;;;9.55;;
3465;SDS011;1747;48.884;9.160;2022-12-04T14:23:41;23.10;;;10.18;;
3465;SDS011;1747;48.884;9.160;2022-12-04T14:26:18;24.80;;;11.63;;
3465;SDS011;1747;48.884;9.160;2022-12-04T14:28:50;22.98;;;11.10;;
3465;SDS011;1747;48.884;9.160;2022-12-04T14:31:21;24.55;;;12.93;;
3465;SDS011;1747;48.884;9.160;2022-12-04T14:33:56;21.40;;;10.07;;
3465;SDS011;1747;48.884;9.160;2022-12-04T14:36:25;24.70;;;9.68;;
3465;SDS011;1747;48.884;9.160;2022-12-04T14:39:00;22.17;;;9.82;;
3465;SDS011;1747;48.884;9.160;2022-12-04T14:41:30;22.02;;;9.00;;
3465;SDS011;1747;48.884;9.160;2022-12-04T14:43:59;24.55;;;10.32;;
3465;SDS011;1747;48.884;9.160;2022-12-04T14:46:28;22.38;;;11.02;;
3465;SDS011;1747;48.884;9.160;2022-12-04T14:49:05;20.60;;;9.55;;
3465;SDS011;1747;48.884;9.160;2022-12-04T14:51:42;26.77;;;10.85;;
3465;SDS011;1747;48.884;9.160;2022-12-04T14:54:18;21.63;;;9.90;;
3465;SDS011;1747;48.884;9.160;2022-12-04T14:56:56;21.85;;;9.98;;
3465;SDS011;1747;48.884;9.160;2022-12-04T14:59:39;22.20;;;9.48;;
3465;SDS011;1747;48.884;9.160;2022-12-04T15:02:10;18.90;;;9.05;;
3465;SDS011;1747;48.884;9.160;2022-12-04T15:04:38;23.75;;;10.02;;
3465;SDS011;1747;48.884;9.160;2022-12-04T15:07:10;22.80;;;9.80;;
3465;SDS011;1747;48.884;9.160;2022-12-04T15:09:48;22.75;;;10.75;;
3465;SDS011;1747;48.884;9.160;2022-12-04T15:12:38;23.50;;;9.88;;
3465;SDS011;1747;48.884;9.160;2022-12-04T15:15:14;21.05;;;9.50;;
3465;SDS011;1747;48.884;9.160;2022-12-04T15:17:58;22.02;;;9.70;;
3465;SDS011;1747;48.884;9.160;2022-12-04T15:20:31;24.73;;;10.23;;
3465;SDS011;1747;48.884;9.160;2022-12-04T15:23:04;22.02;;;9.88;;
3465;SDS011;1747;48.884;9.160;2022-12-04T15:25:33;19.83;;;9.65;;
3465;SDS011;1747;48.884;9.160;2022-12-04T15:28:07;24.27;;;10.52;;